createdAt,value
2022-08-05T00:00:17.368Z,99.90
2022-08-05T00:02:50.914Z,99.90
2022-08-05T00:08:32.816Z,99.90
2022-08-05T00:11:00.837Z,99.90
2022-08-05T00:13:39.024Z,99.90
2022-08-05T00:16:12.243Z,99.90
2022-08-05T00:18:45.296Z,99.90
2022-08-05T00:21:14.719Z,99.90
2022-08-05T00:23:45.901Z,99.90
2022-08-05T00:26:16.658Z,99.90
2022-08-05T00:28:45.855Z,99.90
2022-08-05T00:31:14.837Z,99.90
2022-08-05T00:34:53.259Z,99.90
2022-08-05T00:37:08.935Z,99.90
2022-08-05T00:39:21.345Z,99.90
2022-08-05T00:41:55.593Z,99.90
2022-08-05T00:44:30.682Z,99.90
2022-08-05T00:47:02.171Z,99.90
2022-08-05T00:49:51.280Z,99.90
2022-08-05T00:52:28.098Z,99.90
2022-08-05T00:54:57.031Z,99.90
2022-08-05T00:57:38.139Z,99.90
2022-08-05T01:00:17.042Z,99.90
2022-08-05T01:02:48.002Z,99.90
2022-08-05T01:05:19.684Z,99.90
2022-08-05T01:08:30.266Z,99.90
2022-08-05T01:10:40.964Z,99.90
2022-08-05T01:13:59.062Z,99.90
2022-08-05T01:16:26.464Z,99.90
2022-08-05T01:19:00.858Z,99.90
2022-08-05T01:21:58.362Z,99.90
2022-08-05T01:24:42.757Z,99.90
2022-08-05T01:27:27.466Z,99.90
2022-08-05T01:30:04.994Z,99.90
2022-08-05T01:32:45.425Z,99.90
2022-08-05T01:35:51.620Z,99.90
2022-08-05T01:38:08.029Z,99.90
2022-08-05T01:40:54.624Z,99.90
2022-08-05T01:43:25.445Z,99.90
2022-08-05T01:45:57.137Z,99.90
2022-08-05T01:48:27.138Z,99.90
2022-08-05T01:50:57.752Z,99.90
2022-08-05T01:53:57.700Z,99.90
2022-08-05T01:58:11.440Z,99.90
2022-08-05T01:59:11.204Z,99.90
2022-08-05T02:01:41.543Z,99.90
2022-08-05T02:04:10.691Z,99.90
2022-08-05T02:06:39.673Z,99.90
2022-08-05T02:09:08.743Z,99.90
2022-08-05T02:11:48.160Z,99.90
2022-08-05T02:14:26.817Z,99.90
2022-08-05T02:17:03.162Z,99.90
2022-08-05T02:19:35.501Z,99.90
2022-08-05T02:22:10.081Z,99.90
2022-08-05T02:25:00.089Z,99.90
2022-08-05T02:27:29.741Z,99.90
2022-08-05T02:30:18.728Z,99.90
2022-08-05T02:32:52.294Z,99.90
2022-08-05T02:35:28.198Z,99.90
2022-08-05T02:38:02.175Z,99.90
2022-08-05T02:40:32.598Z,99.90
2022-08-05T02:43:03.406Z,99.90
2022-08-05T02:45:52.471Z,99.90
2022-08-05T02:48:29.022Z,99.90
2022-08-05T02:51:01.036Z,99.90
2022-08-05T02:53:35.899Z,99.90
2022-08-05T02:56:16.065Z,99.90
2022-08-05T02:58:51.197Z,99.90
2022-08-05T03:01:40.390Z,99.90
2022-08-05T03:04:14.473Z,99.90
2022-08-05T03:06:55.813Z,99.90
2022-08-05T03:09:37.733Z,99.90
2022-08-05T03:12:08.283Z,99.90
2022-08-05T03:14:46.001Z,99.90
2022-08-05T03:17:14.765Z,99.90
2022-08-05T03:19:45.645Z,99.90
2022-08-05T03:22:16.300Z,99.90
2022-08-05T03:24:51.114Z,99.90
2022-08-05T03:27:22.002Z,99.90
2022-08-05T03:30:07.569Z,99.90
2022-08-05T03:32:37.643Z,99.90
2022-08-05T03:35:08.948Z,99.90
2022-08-05T03:37:41.015Z,99.90
2022-08-05T03:40:24.434Z,99.90
2022-08-05T03:43:15.697Z,99.90
2022-08-05T03:45:57.861Z,99.90
2022-08-05T03:48:28.971Z,99.90
2022-08-05T03:52:37.323Z,99.90
2022-08-05T03:55:52.848Z,99.90
2022-08-05T03:56:50.107Z,99.90
2022-08-05T03:59:24.772Z,99.90
2022-08-05T04:01:54.549Z,99.90
2022-08-05T04:04:28.252Z,99.90
2022-08-05T04:06:59.021Z,99.90
2022-08-05T04:09:28.961Z,99.90
2022-08-05T04:11:57.634Z,99.90
2022-08-05T04:14:30.296Z,99.90
2022-08-05T04:17:03.077Z,99.90
2022-08-05T04:19:31.570Z,99.90
2022-08-05T04:22:09.221Z,99.90
2022-08-05T04:24:44.350Z,99.90
2022-08-05T04:27:15.339Z,99.90
2022-08-05T04:29:43.789Z,99.90
2022-08-05T04:32:12.154Z,99.90
2022-08-05T04:34:42.855Z,99.90
2022-08-05T04:37:12.937Z,99.90
2022-08-05T04:39:41.141Z,99.90
2022-08-05T04:42:10.342Z,99.90
2022-08-05T04:44:39.187Z,99.90
2022-08-05T04:47:09.889Z,99.90
2022-08-05T04:50:02.917Z,99.90
2022-08-05T04:52:33.283Z,99.90
2022-08-05T04:55:14.918Z,99.90
2022-08-05T04:57:47.583Z,99.90
2022-08-05T05:00:17.223Z,99.90
2022-08-05T05:02:45.311Z,99.90
2022-08-05T05:05:25.995Z,99.90
2022-08-05T05:08:01.728Z,99.90
2022-08-05T05:10:33.524Z,99.90
2022-08-05T05:13:04.273Z,99.90
2022-08-05T05:15:57.927Z,99.90
2022-08-05T05:18:31.242Z,99.90
2022-08-05T05:21:02.336Z,99.90
2022-08-05T05:24:02.189Z,99.90
2022-08-05T05:26:28.628Z,99.90
2022-08-05T05:29:02.353Z,99.90
2022-08-05T05:34:02.053Z,99.90
2022-08-05T05:36:31.944Z,99.90
2022-08-05T05:39:03.761Z,99.90
2022-08-05T05:41:40.931Z,99.90
2022-08-05T05:44:35.995Z,99.90
2022-08-05T05:47:04.190Z,99.90
2022-08-05T05:52:09.026Z,99.90
2022-08-05T05:54:50.219Z,99.90
2022-08-05T05:57:19.954Z,99.90
2022-08-05T05:59:48.866Z,99.90
2022-08-05T06:02:32.575Z,99.90
2022-08-05T06:05:13.945Z,99.90
2022-08-05T06:07:57.901Z,99.90
2022-08-05T06:10:36.277Z,99.90
2022-08-05T06:13:05.282Z,99.90
2022-08-05T06:16:28.359Z,99.90
2022-08-05T06:18:31.543Z,99.90
2022-08-05T06:21:00.612Z,99.90
2022-08-05T06:23:43.525Z,99.90
2022-08-05T06:26:20.957Z,99.90
2022-08-05T06:28:50.597Z,99.90
2022-08-05T06:31:22.020Z,99.90
2022-08-05T06:34:07.752Z,99.90
2022-08-05T06:36:56.937Z,99.90
2022-08-05T06:39:27.048Z,99.90
2022-08-05T06:41:57.510Z,99.90
2022-08-05T06:44:28.034Z,99.90
2022-08-05T06:46:56.250Z,99.90
2022-08-05T06:50:00.138Z,99.90
2022-08-05T06:52:37.926Z,99.90
2022-08-05T06:55:02.519Z,99.90
2022-08-05T06:58:02.610Z,99.90
2022-08-05T07:00:24.517Z,99.90
2022-08-05T07:02:54.430Z,99.90
2022-08-05T07:05:37.231Z,99.90
2022-08-05T07:08:10.683Z,99.90
2022-08-05T07:10:53.023Z,99.90
2022-08-05T07:13:57.550Z,99.90
2022-08-05T07:17:58.678Z,99.90
2022-08-05T07:22:28.115Z,99.90
2022-08-05T07:25:22.921Z,99.90
2022-08-05T07:27:58.558Z,99.90
2022-08-05T07:30:34.304Z,99.90
2022-08-05T07:33:05.486Z,99.90
2022-08-05T07:36:04.000Z,99.90
2022-08-05T07:38:33.641Z,99.90
2022-08-05T07:41:35.124Z,99.90
2022-08-05T07:43:56.163Z,99.90
2022-08-05T07:46:27.590Z,99.90
2022-08-05T07:49:02.408Z,99.90
2022-08-05T07:51:37.420Z,99.90
2022-08-05T07:54:10.502Z,99.90
2022-08-05T07:57:01.385Z,99.90
2022-08-05T07:59:31.365Z,99.90
2022-08-05T08:02:16.632Z,99.90
2022-08-05T08:04:46.543Z,99.90
2022-08-05T08:07:17.888Z,99.90
2022-08-05T08:09:52.915Z,99.90
2022-08-05T08:12:36.849Z,99.90
2022-08-05T08:15:15.107Z,99.90
2022-08-05T08:17:52.653Z,99.90
2022-08-05T08:21:00.069Z,99.90
2022-08-05T08:24:00.367Z,99.90
2022-08-05T08:26:00.654Z,99.90
2022-08-05T08:28:37.166Z,99.90
2022-08-05T08:31:14.970Z,99.90
2022-08-05T08:33:51.604Z,99.90
2022-08-05T08:36:39.009Z,99.90
2022-08-05T08:39:14.951Z,99.90
2022-08-05T08:41:52.563Z,99.90
2022-08-05T08:45:24.058Z,99.90
2022-08-05T08:48:05.676Z,99.90
2022-08-05T08:50:30.673Z,99.90
2022-08-05T08:53:08.058Z,99.90
2022-08-05T08:56:02.774Z,99.90
2022-08-05T08:58:43.097Z,99.90
2022-08-05T09:01:15.776Z,99.90
2022-08-05T09:03:47.603Z,99.90
2022-08-05T09:06:21.265Z,99.90
2022-08-05T09:08:52.514Z,99.90
2022-08-05T09:11:51.415Z,99.90
2022-08-05T09:14:56.617Z,99.90
2022-08-05T09:16:57.887Z,99.90
2022-08-05T09:19:27.832Z,99.90
2022-08-05T09:22:21.890Z,99.90
2022-08-05T09:24:59.139Z,99.90
2022-08-05T09:28:04.212Z,99.90
2022-08-05T09:30:23.248Z,99.90
2022-08-05T09:32:52.767Z,99.90
2022-08-05T09:35:27.385Z,99.90
2022-08-05T09:38:17.572Z,99.90
2022-08-05T09:40:52.374Z,99.90
2022-08-05T09:43:41.138Z,99.90
2022-08-05T09:46:28.405Z,99.90
2022-08-05T09:49:08.214Z,99.90
2022-08-05T09:51:49.525Z,99.90
2022-08-05T09:54:32.078Z,99.90
2022-08-05T09:57:01.674Z,99.90
2022-08-05T09:59:35.055Z,99.90
2022-08-05T10:02:06.299Z,99.90
2022-08-05T10:04:41.379Z,99.90
2022-08-05T10:07:19.925Z,99.90
2022-08-05T10:10:13.926Z,99.90
2022-08-05T10:12:49.652Z,99.90
2022-08-05T10:15:27.146Z,99.90
2022-08-05T10:18:22.383Z,99.90
2022-08-05T10:20:54.056Z,99.90
2022-08-05T10:23:55.550Z,99.90
2022-08-05T10:26:14.868Z,99.90
2022-08-05T10:28:45.111Z,99.90
2022-08-05T10:32:53.120Z,99.90
2022-08-05T10:34:07.850Z,99.90
2022-08-05T10:36:37.350Z,99.90
2022-08-05T10:39:15.026Z,99.90
2022-08-05T10:42:01.510Z,99.90
2022-08-05T10:44:32.345Z,99.90
2022-08-05T10:47:26.061Z,99.90
2022-08-05T10:50:20.736Z,99.90
2022-08-05T10:52:58.714Z,99.90
2022-08-05T10:55:28.034Z,99.90
2022-08-05T10:58:17.891Z,99.90
2022-08-05T11:00:47.918Z,99.90
2022-08-05T11:03:24.750Z,99.90
2022-08-05T11:06:08.391Z,99.90
2022-08-05T11:09:16.695Z,99.90
2022-08-05T11:11:52.602Z,99.90
2022-08-05T11:15:11.937Z,99.90
2022-08-05T11:18:07.293Z,99.90
2022-08-05T11:20:43.645Z,99.90
2022-08-05T11:24:04.923Z,99.90
2022-08-05T11:26:28.886Z,99.90
2022-08-05T11:29:12.567Z,99.90
2022-08-05T11:31:58.616Z,99.90
2022-08-05T11:34:39.939Z,99.90
2022-08-05T11:38:30.623Z,99.90
2022-08-05T11:41:03.550Z,99.90
2022-08-05T11:44:05.962Z,99.90
2022-08-05T11:46:58.754Z,99.90
2022-08-05T11:49:28.883Z,99.90
2022-08-05T11:52:11.399Z,99.90
2022-08-05T11:54:41.763Z,99.90
2022-08-05T11:57:25.488Z,99.90
2022-08-05T11:59:54.645Z,99.90
2022-08-05T12:02:36.061Z,99.90
2022-08-05T12:05:18.037Z,99.90
2022-08-05T12:08:09.137Z,99.90
2022-08-05T12:10:45.800Z,99.90
2022-08-05T12:13:27.636Z,99.90
2022-08-05T12:16:15.049Z,99.90
2022-08-05T12:18:52.220Z,99.90
2022-08-05T12:21:26.682Z,98.20
2022-08-05T12:24:04.591Z,99.40
2022-08-05T12:26:35.377Z,94.10
2022-08-05T12:29:05.633Z,95.20
2022-08-05T12:31:42.366Z,92.00
2022-08-05T12:34:21.454Z,89.50
2022-08-05T12:36:55.527Z,85.30
2022-08-05T12:39:27.931Z,85.30
2022-08-05T12:42:04.254Z,80.50
2022-08-05T12:44:36.880Z,76.70
2022-08-05T12:47:12.520Z,73.80
2022-08-05T12:50:04.098Z,72.50
2022-08-05T12:52:38.673Z,69.90
2022-08-05T12:55:22.127Z,65.80
2022-08-05T12:58:50.460Z,66.80
2022-08-05T13:02:01.885Z,67.60
2022-08-05T13:03:39.029Z,63.20
2022-08-05T13:06:16.470Z,65.80
2022-08-05T13:08:52.333Z,69.40
2022-08-05T13:11:59.801Z,74.20
2022-08-05T13:14:24.680Z,75.50
2022-08-05T13:17:08.237Z,63.90
2022-08-05T13:19:51.091Z,71.00
2022-08-05T13:22:29.475Z,70.60
2022-08-05T13:25:05.540Z,62.10
2022-08-05T13:27:39.187Z,63.60
2022-08-05T13:30:35.105Z,56.50
2022-08-05T13:33:00.930Z,57.90
2022-08-05T13:35:42.704Z,61.40
2022-08-05T13:38:28.260Z,64.50
2022-08-05T13:41:04.125Z,61.30
2022-08-05T13:43:44.021Z,57.10
2022-08-05T13:46:43.750Z,52.90
2022-08-05T13:49:10.230Z,52.90
2022-08-05T13:51:46.590Z,52.30
2022-08-05T13:54:17.009Z,53.50
2022-08-05T13:56:50.819Z,53.20
2022-08-05T13:59:24.552Z,52.60
2022-08-05T14:01:58.146Z,52.00
2022-08-05T14:04:49.586Z,53.60
2022-08-05T14:07:56.240Z,55.40
2022-08-05T14:10:10.667Z,57.10
2022-08-05T14:12:42.980Z,58.40
2022-08-05T14:16:08.155Z,60.40
2022-08-05T14:18:06.266Z,62.10
2022-08-05T14:20:47.229Z,62.30
2022-08-05T14:23:24.792Z,62.70
2022-08-05T14:25:58.979Z,62.90
2022-08-05T14:28:29.332Z,63.30
2022-08-05T14:30:57.729Z,64.00
2022-08-05T14:33:25.876Z,64.90
2022-08-05T14:35:54.853Z,64.30
2022-08-05T14:38:31.906Z,63.60
2022-08-05T14:41:06.114Z,62.40
2022-08-05T14:43:59.993Z,57.60
2022-08-05T14:46:28.732Z,56.20
2022-08-05T14:49:03.383Z,55.10
2022-08-05T14:51:37.589Z,54.20
2022-08-05T14:54:27.638Z,54.90
2022-08-05T14:56:55.008Z,53.60
2022-08-05T14:59:24.768Z,52.60
2022-08-05T15:01:53.739Z,54.10
2022-08-05T15:04:22.836Z,54.10
2022-08-05T15:06:51.997Z,54.30
2022-08-05T15:09:51.099Z,54.40
2022-08-05T15:12:11.567Z,55.00
2022-08-05T15:14:48.231Z,55.00
2022-08-05T15:17:45.738Z,56.10
2022-08-05T15:20:18.618Z,55.80
2022-08-05T15:22:54.410Z,56.80
2022-08-05T15:25:40.833Z,54.50
2022-08-05T15:28:13.149Z,53.80
2022-08-05T15:30:45.496Z,53.20
2022-08-05T15:34:05.628Z,52.80
2022-08-05T15:36:03.910Z,53.60
2022-08-05T15:38:36.440Z,54.50
2022-08-05T15:41:22.985Z,55.80
2022-08-05T15:43:54.654Z,55.50
2022-08-05T15:46:25.210Z,54.50
2022-08-05T15:49:01.035Z,54.60
2022-08-05T15:52:13.812Z,53.80
2022-08-05T15:54:34.737Z,54.80
2022-08-05T15:57:07.617Z,54.90
2022-08-05T15:59:36.297Z,53.10
2022-08-05T16:02:09.612Z,51.00
2022-08-05T16:04:43.423Z,53.30
2022-08-05T16:07:12.206Z,52.00
2022-08-05T16:09:42.201Z,50.80
2022-08-05T16:12:31.749Z,52.30
2022-08-05T16:15:00.458Z,53.80
2022-08-05T16:17:30.165Z,54.20
2022-08-05T16:20:04.269Z,53.90
2022-08-05T16:22:40.768Z,53.00
2022-08-05T16:25:10.383Z,53.20
2022-08-05T16:28:01.039Z,53.60
2022-08-05T16:30:29.211Z,54.00
2022-08-05T16:32:59.424Z,54.20
2022-08-05T16:35:32.400Z,54.10
2022-08-05T16:38:18.560Z,54.30
2022-08-05T16:40:59.783Z,54.50
2022-08-05T16:43:32.080Z,54.50
2022-08-05T16:46:24.265Z,54.70
2022-08-05T16:48:55.568Z,55.10
2022-08-05T16:51:24.241Z,55.60
2022-08-05T16:54:04.855Z,55.50
2022-08-05T16:56:41.613Z,55.10
2022-08-05T16:59:14.555Z,56.50
2022-08-05T17:01:54.109Z,56.90
2022-08-05T17:04:27.229Z,57.70
2022-08-05T17:07:00.211Z,57.90
2022-08-05T17:09:29.881Z,57.50
2022-08-05T17:11:59.813Z,58.00
2022-08-05T17:14:37.177Z,58.70
2022-08-05T17:17:14.270Z,59.70
2022-08-05T17:19:46.382Z,60.20
2022-08-05T17:22:25.522Z,61.30
2022-08-05T17:24:57.822Z,61.50
2022-08-05T17:27:34.211Z,62.10
2022-08-05T17:30:12.128Z,62.30
2022-08-05T17:32:47.958Z,62.00
2022-08-05T17:35:20.777Z,62.30
2022-08-05T17:37:49.265Z,62.50
2022-08-05T17:40:22.657Z,62.90
2022-08-05T17:42:53.210Z,62.70
2022-08-05T17:45:23.022Z,63.00
2022-08-05T17:47:56.094Z,63.50
2022-08-05T17:50:28.178Z,64.10
2022-08-05T17:53:04.548Z,64.30
2022-08-05T17:55:39.572Z,65.50
2022-08-05T17:58:12.582Z,65.20
2022-08-05T18:00:45.145Z,64.60
2022-08-05T18:06:11.899Z,64.40
2022-08-05T18:08:44.836Z,64.10
2022-08-05T18:11:23.174Z,64.60
2022-08-05T18:13:51.649Z,64.80
2022-08-05T18:16:20.750Z,65.20
2022-08-05T18:18:50.862Z,65.00
2022-08-05T18:21:22.946Z,65.70
2022-08-05T18:23:55.721Z,66.90
2022-08-05T18:26:27.709Z,67.50
2022-08-05T18:28:58.145Z,67.90
2022-08-05T18:31:33.807Z,68.50
2022-08-05T18:34:05.949Z,69.70
2022-08-05T18:36:36.527Z,71.40
2022-08-05T18:39:09.693Z,72.20
2022-08-05T18:41:55.276Z,73.60
2022-08-05T18:44:34.822Z,74.60
2022-08-05T18:47:04.346Z,76.00
2022-08-05T18:49:57.859Z,77.10
2022-08-05T18:52:35.748Z,77.70
2022-08-05T18:55:10.315Z,79.10
2022-08-05T18:57:43.650Z,80.40
2022-08-05T19:00:27.090Z,81.40
2022-08-05T19:03:03.976Z,81.80
2022-08-05T19:06:11.162Z,83.20
2022-08-05T19:08:30.543Z,84.80
2022-08-05T19:11:04.472Z,86.00
2022-08-05T19:13:35.671Z,87.40
2022-08-05T19:16:05.693Z,89.00
2022-08-05T19:18:53.994Z,90.00
2022-08-05T19:21:25.942Z,90.50
2022-08-05T19:24:06.253Z,91.30
2022-08-05T19:26:43.961Z,91.50
2022-08-05T19:29:23.992Z,92.60
2022-08-05T19:31:55.934Z,92.80
2022-08-05T19:34:25.671Z,93.50
2022-08-05T19:36:53.838Z,93.50
2022-08-05T19:39:23.399Z,93.70
2022-08-05T19:42:06.977Z,94.10
2022-08-05T19:44:45.342Z,94.30
2022-08-05T19:47:15.292Z,94.50
2022-08-05T19:49:45.243Z,94.50
2022-08-05T19:52:31.702Z,94.50
2022-08-05T19:55:06.997Z,94.50
2022-08-05T19:58:14.489Z,94.60
2022-08-05T20:00:38.317Z,95.00
2022-08-05T20:03:09.120Z,95.40
2022-08-05T20:05:43.051Z,95.50
2022-08-05T20:08:11.691Z,95.50
2022-08-05T20:10:43.317Z,96.10
2022-08-05T20:13:12.175Z,96.20
2022-08-05T20:15:52.465Z,96.40
2022-08-05T20:18:33.902Z,96.70
2022-08-05T20:21:05.276Z,96.80
2022-08-05T20:23:40.551Z,97.10
2022-08-05T20:26:21.520Z,97.40
2022-08-05T20:28:54.028Z,97.80
2022-08-05T20:31:36.846Z,98.10
2022-08-05T20:34:11.667Z,98.40
2022-08-05T20:36:43.483Z,98.70
2022-08-05T20:39:13.343Z,99.20
2022-08-05T20:41:45.471Z,99.60
2022-08-05T20:44:18.674Z,99.90
2022-08-05T20:46:47.932Z,99.90
2022-08-05T20:49:23.921Z,99.90
2022-08-05T20:51:53.763Z,99.90
2022-08-05T20:54:22.287Z,99.90
2022-08-05T20:56:51.779Z,99.90
2022-08-05T20:59:26.471Z,99.90
2022-08-05T21:01:57.984Z,99.90
2022-08-05T21:04:27.302Z,99.90
2022-08-05T21:06:55.925Z,99.90
2022-08-05T21:09:24.016Z,99.90
2022-08-05T21:12:10.905Z,99.90
2022-08-05T21:14:40.040Z,99.90
2022-08-05T21:17:08.125Z,99.90
2022-08-05T21:19:46.480Z,99.90
2022-08-05T21:22:18.406Z,99.90
2022-08-05T21:24:48.970Z,99.90
2022-08-05T21:27:25.475Z,99.90
2022-08-05T21:29:56.202Z,99.90
2022-08-05T21:32:27.037Z,99.90
2022-08-05T21:35:17.332Z,99.90
2022-08-05T21:37:47.251Z,99.90
2022-08-05T21:40:16.629Z,99.90
2022-08-05T21:42:47.210Z,99.90
2022-08-05T21:45:24.633Z,99.90
2022-08-05T21:48:06.492Z,99.90
2022-08-05T21:50:36.654Z,99.90
2022-08-05T21:53:16.268Z,99.90
2022-08-05T21:56:06.069Z,99.90
2022-08-05T21:58:34.408Z,99.90
2022-08-05T22:01:05.600Z,99.90
2022-08-05T22:03:52.307Z,99.90
2022-08-05T22:06:34.821Z,99.90
2022-08-05T22:09:13.997Z,99.90
2022-08-05T22:11:47.008Z,99.90
2022-08-05T22:14:33.325Z,99.90
2022-08-05T22:17:06.981Z,99.90
2022-08-05T22:19:57.265Z,99.90
2022-08-05T22:22:28.280Z,99.90
2022-08-05T22:25:21.586Z,99.90
2022-08-05T22:28:09.385Z,99.90
2022-08-05T22:30:44.302Z,99.90
2022-08-05T22:33:57.282Z,99.90
2022-08-05T22:36:17.145Z,99.90
2022-08-05T22:38:48.118Z,99.90
2022-08-05T22:41:26.262Z,99.90
2022-08-05T22:44:05.531Z,99.90
2022-08-05T22:46:40.168Z,99.90
2022-08-05T22:49:12.486Z,99.90
2022-08-05T22:52:05.692Z,99.90
2022-08-05T22:54:36.577Z,99.90
2022-08-05T22:57:05.126Z,99.90
2022-08-05T22:59:48.448Z,99.90
2022-08-05T23:02:29.677Z,99.90
2022-08-05T23:05:02.144Z,99.90
2022-08-05T23:07:33.693Z,99.90
2022-08-05T23:10:14.575Z,99.90
2022-08-05T23:12:43.915Z,99.90
2022-08-05T23:15:12.563Z,99.90
2022-08-05T23:18:00.848Z,99.90
2022-08-05T23:20:30.260Z,99.90
2022-08-05T23:22:58.926Z,99.90
2022-08-05T23:25:50.869Z,99.90
2022-08-05T23:28:17.222Z,99.90
2022-08-05T23:30:53.117Z,99.90
2022-08-05T23:34:03.252Z,99.90
2022-08-05T23:36:13.508Z,99.90
2022-08-05T23:38:42.785Z,99.90
2022-08-05T23:41:12.077Z,99.90
2022-08-05T23:44:05.431Z,99.90
2022-08-05T23:46:29.832Z,99.90
2022-08-05T23:49:02.171Z,99.90
2022-08-05T23:52:02.351Z,99.90
2022-08-05T23:54:36.463Z,99.90
2022-08-05T23:57:08.266Z,99.90
